sensor_id;sensor_type;location;lat;lon;timestamp;temperature;humidity
53800;DHT22;39708;53.210;6.948;2023-03-19T00:01:53;8.90;99.90
53800;DHT22;39708;53.210;6.948;2023-03-19T00:04:19;8.90;99.90
53800;DHT22;39708;53.210;6.948;2023-03-19T00:06:45;8.80;99.90
53800;DHT22;39708;53.210;6.948;2023-03-19T00:09:10;8.80;99.90
53800;DHT22;39708;53.210;6.948;2023-03-19T00:11:36;8.90;99.90
53800;DHT22;39708;53.210;6.948;2023-03-19T00:14:01;8.70;99.90
53800;DHT22;39708;53.210;6.948;2023-03-19T00:16:27;8.70;99.90
53800;DHT22;39708;53.210;6.948;2023-03-19T00:18:52;8.70;99.90
53800;DHT22;39708;53.210;6.948;2023-03-19T00:21:19;8.60;99.90
53800;DHT22;39708;53.210;6.948;2023-03-19T00:23:44;8.60;99.90
53800;DHT22;39708;53.210;6.948;2023-03-19T00:26:10;8.50;99.90
53800;DHT22;39708;53.210;6.948;2023-03-19T00:28:36;8.40;99.90
53800;DHT22;39708;53.210;6.948;2023-03-19T00:33:33;8.30;99.90
53800;DHT22;39708;53.210;6.948;2023-03-19T00:35:59;8.30;99.90
53800;DHT22;39708;53.210;6.948;2023-03-19T00:38:24;8.20;99.90
53800;DHT22;39708;53.210;6.948;2023-03-19T00:40:50;8.20;99.90
53800;DHT22;39708;53.210;6.948;2023-03-19T00:43:15;8.20;99.90
53800;DHT22;39708;53.210;6.948;2023-03-19T00:45:41;8.20;99.90
53800;DHT22;39708;53.210;6.948;2023-03-19T00:48:07;8.30;99.90
53800;DHT22;39708;53.210;6.948;2023-03-19T00:50:32;8.20;99.90
53800;DHT22;39708;53.210;6.948;2023-03-19T00:52:58;8.30;99.90
53800;DHT22;39708;53.210;6.948;2023-03-19T00:55:23;8.30;99.90
53800;DHT22;39708;53.210;6.948;2023-03-19T00:57:50;8.30;99.90
53800;DHT22;39708;53.210;6.948;2023-03-19T01:00:16;8.40;99.90
53800;DHT22;39708;53.210;6.948;2023-03-19T01:02:41;8.40;99.90
53800;DHT22;39708;53.210;6.948;2023-03-19T01:05:07;8.50;99.90
53800;DHT22;39708;53.210;6.948;2023-03-19T01:07:33;8.50;99.90
53800;DHT22;39708;53.210;6.948;2023-03-19T01:09:59;8.60;99.90
53800;DHT22;39708;53.210;6.948;2023-03-19T01:12:25;8.60;99.90
53800;DHT22;39708;53.210;6.948;2023-03-19T01:14:50;8.60;99.90
53800;DHT22;39708;53.210;6.948;2023-03-19T01:17:16;8.70;99.90
53800;DHT22;39708;53.210;6.948;2023-03-19T01:19:42;8.70;99.90
53800;DHT22;39708;53.210;6.948;2023-03-19T01:22:07;8.80;99.90
53800;DHT22;39708;53.210;6.948;2023-03-19T01:24:33;8.70;99.90
53800;DHT22;39708;53.210;6.948;2023-03-19T01:26:59;8.70;99.90
53800;DHT22;39708;53.210;6.948;2023-03-19T01:29:24;8.70;99.90
53800;DHT22;39708;53.210;6.948;2023-03-19T01:31:50;8.80;99.90
53800;DHT22;39708;53.210;6.948;2023-03-19T01:34:15;8.70;99.90
53800;DHT22;39708;53.210;6.948;2023-03-19T01:36:41;8.80;99.90
53800;DHT22;39708;53.210;6.948;2023-03-19T01:39:07;8.80;99.90
53800;DHT22;39708;53.210;6.948;2023-03-19T01:41:32;9.00;99.90
53800;DHT22;39708;53.210;6.948;2023-03-19T01:43:58;9.10;99.90
53800;DHT22;39708;53.210;6.948;2023-03-19T01:48:53;8.90;99.90
53800;DHT22;39708;53.210;6.948;2023-03-19T01:51:20;8.90;99.90
53800;DHT22;39708;53.210;6.948;2023-03-19T01:53:49;8.90;99.90
53800;DHT22;39708;53.210;6.948;2023-03-19T01:58:42;9.00;99.90
53800;DHT22;39708;53.210;6.948;2023-03-19T02:01:08;9.20;99.90
53800;DHT22;39708;53.210;6.948;2023-03-19T02:03:33;9.30;99.90
53800;DHT22;39708;53.210;6.948;2023-03-19T02:06:01;9.00;99.90
53800;DHT22;39708;53.210;6.948;2023-03-19T02:08:27;9.00;99.90
53800;DHT22;39708;53.210;6.948;2023-03-19T02:10:53;9.20;99.90
53800;DHT22;39708;53.210;6.948;2023-03-19T02:13:21;9.00;99.90
53800;DHT22;39708;53.210;6.948;2023-03-19T02:15:47;9.20;99.90
53800;DHT22;39708;53.210;6.948;2023-03-19T02:18:13;9.10;99.90
53800;DHT22;39708;53.210;6.948;2023-03-19T02:28:20;9.20;99.90
53800;DHT22;39708;53.210;6.948;2023-03-19T02:30:47;9.10;99.90
53800;DHT22;39708;53.210;6.948;2023-03-19T02:33:14;9.10;99.90
53800;DHT22;39708;53.210;6.948;2023-03-19T02:35:40;9.10;99.90
53800;DHT22;39708;53.210;6.948;2023-03-19T02:38:06;9.10;99.90
53800;DHT22;39708;53.210;6.948;2023-03-19T02:40:36;9.10;99.90
53800;DHT22;39708;53.210;6.948;2023-03-19T02:43:02;9.10;99.90
53800;DHT22;39708;53.210;6.948;2023-03-19T02:45:28;9.10;99.90
53800;DHT22;39708;53.210;6.948;2023-03-19T02:47:54;9.10;99.90
53800;DHT22;39708;53.210;6.948;2023-03-19T02:50:20;9.10;99.90
53800;DHT22;39708;53.210;6.948;2023-03-19T02:52:45;9.10;99.90
53800;DHT22;39708;53.210;6.948;2023-03-19T02:55:11;9.10;99.90
53800;DHT22;39708;53.210;6.948;2023-03-19T02:57:37;9.10;99.90
53800;DHT22;39708;53.210;6.948;2023-03-19T03:00:03;9.10;99.90
53800;DHT22;39708;53.210;6.948;2023-03-19T03:02:29;9.00;99.90
53800;DHT22;39708;53.210;6.948;2023-03-19T03:04:55;9.00;99.90
53800;DHT22;39708;53.210;6.948;2023-03-19T03:07:20;9.00;99.90
53800;DHT22;39708;53.210;6.948;2023-03-19T03:09:46;9.00;99.90
53800;DHT22;39708;53.210;6.948;2023-03-19T03:12:12;9.00;99.90
53800;DHT22;39708;53.210;6.948;2023-03-19T03:14:37;8.90;99.90
53800;DHT22;39708;53.210;6.948;2023-03-19T03:17:03;8.90;99.90
53800;DHT22;39708;53.210;6.948;2023-03-19T03:19:28;8.90;99.90
53800;DHT22;39708;53.210;6.948;2023-03-19T03:21:54;8.90;99.90
53800;DHT22;39708;53.210;6.948;2023-03-19T03:24:20;8.90;99.90
53800;DHT22;39708;53.210;6.948;2023-03-19T03:26:46;8.80;99.90
53800;DHT22;39708;53.210;6.948;2023-03-19T03:29:11;8.80;99.90
53800;DHT22;39708;53.210;6.948;2023-03-19T03:31:37;8.80;99.90
53800;DHT22;39708;53.210;6.948;2023-03-19T03:34:03;9.00;99.90
53800;DHT22;39708;53.210;6.948;2023-03-19T03:36:28;8.80;99.90
53800;DHT22;39708;53.210;6.948;2023-03-19T03:38:54;8.90;99.90
53800;DHT22;39708;53.210;6.948;2023-03-19T03:41:20;8.90;99.90
53800;DHT22;39708;53.210;6.948;2023-03-19T03:43:45;8.70;99.90
53800;DHT22;39708;53.210;6.948;2023-03-19T03:46:11;8.90;99.90
53800;DHT22;39708;53.210;6.948;2023-03-19T03:48:37;8.70;99.90
53800;DHT22;39708;53.210;6.948;2023-03-19T03:51:03;8.70;99.90
53800;DHT22;39708;53.210;6.948;2023-03-19T03:53:29;8.70;99.90
53800;DHT22;39708;53.210;6.948;2023-03-19T03:55:54;8.70;99.90
53800;DHT22;39708;53.210;6.948;2023-03-19T03:58:20;8.70;99.90
53800;DHT22;39708;53.210;6.948;2023-03-19T04:00:45;8.80;99.90
53800;DHT22;39708;53.210;6.948;2023-03-19T04:03:12;8.70;99.90
53800;DHT22;39708;53.210;6.948;2023-03-19T04:05:37;8.70;99.90
53800;DHT22;39708;53.210;6.948;2023-03-19T04:08:03;8.60;99.90
53800;DHT22;39708;53.210;6.948;2023-03-19T04:10:29;8.30;99.90
53800;DHT22;39708;53.210;6.948;2023-03-19T04:12:55;8.10;99.90
53800;DHT22;39708;53.210;6.948;2023-03-19T04:15:21;7.80;99.90
53800;DHT22;39708;53.210;6.948;2023-03-19T04:17:47;7.90;99.90
53800;DHT22;39708;53.210;6.948;2023-03-19T04:20:13;7.50;99.90
53800;DHT22;39708;53.210;6.948;2023-03-19T04:22:40;7.80;99.90
53800;DHT22;39708;53.210;6.948;2023-03-19T04:25:06;7.50;99.90
53800;DHT22;39708;53.210;6.948;2023-03-19T04:27:32;7.50;99.90
53800;DHT22;39708;53.210;6.948;2023-03-19T04:29:58;7.50;99.90
53800;DHT22;39708;53.210;6.948;2023-03-19T04:32:24;7.40;99.90
53800;DHT22;39708;53.210;6.948;2023-03-19T04:34:49;7.50;99.90
53800;DHT22;39708;53.210;6.948;2023-03-19T04:37:15;7.40;99.90
53800;DHT22;39708;53.210;6.948;2023-03-19T04:39:41;7.70;99.90
53800;DHT22;39708;53.210;6.948;2023-03-19T04:42:06;7.80;99.90
53800;DHT22;39708;53.210;6.948;2023-03-19T04:44:32;7.90;99.90
53800;DHT22;39708;53.210;6.948;2023-03-19T04:46:57;8.00;99.90
53800;DHT22;39708;53.210;6.948;2023-03-19T04:49:23;8.30;99.90
53800;DHT22;39708;53.210;6.948;2023-03-19T04:51:49;8.20;99.90
53800;DHT22;39708;53.210;6.948;2023-03-19T04:54:15;8.30;99.90
53800;DHT22;39708;53.210;6.948;2023-03-19T04:56:40;8.40;99.90
53800;DHT22;39708;53.210;6.948;2023-03-19T04:59:06;8.50;99.90
53800;DHT22;39708;53.210;6.948;2023-03-19T05:01:32;8.50;99.90
53800;DHT22;39708;53.210;6.948;2023-03-19T05:03:57;8.60;99.90
53800;DHT22;39708;53.210;6.948;2023-03-19T05:06:23;8.90;99.90
53800;DHT22;39708;53.210;6.948;2023-03-19T05:08:48;8.90;99.90
53800;DHT22;39708;53.210;6.948;2023-03-19T05:11:14;8.90;99.90
53800;DHT22;39708;53.210;6.948;2023-03-19T05:13:39;8.80;99.90
53800;DHT22;39708;53.210;6.948;2023-03-19T05:16:05;8.90;99.90
53800;DHT22;39708;53.210;6.948;2023-03-19T05:18:30;8.90;99.90
53800;DHT22;39708;53.210;6.948;2023-03-19T05:20:57;8.90;99.90
53800;DHT22;39708;53.210;6.948;2023-03-19T05:23:23;8.90;99.90
53800;DHT22;39708;53.210;6.948;2023-03-19T05:25:49;9.00;99.90
53800;DHT22;39708;53.210;6.948;2023-03-19T05:28:15;9.00;99.90
53800;DHT22;39708;53.210;6.948;2023-03-19T05:30:40;8.90;99.90
53800;DHT22;39708;53.210;6.948;2023-03-19T05:33:06;8.90;99.90
53800;DHT22;39708;53.210;6.948;2023-03-19T05:35:31;8.90;99.90
53800;DHT22;39708;53.210;6.948;2023-03-19T05:37:57;8.90;99.90
53800;DHT22;39708;53.210;6.948;2023-03-19T05:40:23;8.90;99.90
53800;DHT22;39708;53.210;6.948;2023-03-19T05:42:49;9.00;99.90
53800;DHT22;39708;53.210;6.948;2023-03-19T05:45:15;8.80;99.90
53800;DHT22;39708;53.210;6.948;2023-03-19T05:47:41;8.80;99.90
53800;DHT22;39708;53.210;6.948;2023-03-19T05:50:08;8.80;99.90
53800;DHT22;39708;53.210;6.948;2023-03-19T05:52:33;8.70;99.90
53800;DHT22;39708;53.210;6.948;2023-03-19T05:55:00;8.70;99.90
53800;DHT22;39708;53.210;6.948;2023-03-19T05:57:25;8.60;99.90
53800;DHT22;39708;53.210;6.948;2023-03-19T05:59:51;8.50;99.90
53800;DHT22;39708;53.210;6.948;2023-03-19T06:02:16;8.50;99.90
53800;DHT22;39708;53.210;6.948;2023-03-19T06:04:42;8.50;99.90
53800;DHT22;39708;53.210;6.948;2023-03-19T06:07:07;8.20;99.90
53800;DHT22;39708;53.210;6.948;2023-03-19T06:09:33;7.80;99.90
53800;DHT22;39708;53.210;6.948;2023-03-19T06:11:59;7.20;99.90
53800;DHT22;39708;53.210;6.948;2023-03-19T06:14:24;6.90;99.90
53800;DHT22;39708;53.210;6.948;2023-03-19T06:16:50;6.50;99.90
53800;DHT22;39708;53.210;6.948;2023-03-19T06:19:16;6.40;99.90
53800;DHT22;39708;53.210;6.948;2023-03-19T06:21:41;6.30;99.90
53800;DHT22;39708;53.210;6.948;2023-03-19T06:24:07;6.30;99.90
53800;DHT22;39708;53.210;6.948;2023-03-19T06:26:32;6.10;99.90
53800;DHT22;39708;53.210;6.948;2023-03-19T06:28:58;6.10;99.90
53800;DHT22;39708;53.210;6.948;2023-03-19T06:31:23;6.10;99.90
53800;DHT22;39708;53.210;6.948;2023-03-19T06:33:49;6.10;99.90
53800;DHT22;39708;53.210;6.948;2023-03-19T06:36:15;6.10;99.90
53800;DHT22;39708;53.210;6.948;2023-03-19T06:38:41;6.10;99.90
53800;DHT22;39708;53.210;6.948;2023-03-19T06:41:06;6.00;99.90
53800;DHT22;39708;53.210;6.948;2023-03-19T06:43:32;6.00;99.90
53800;DHT22;39708;53.210;6.948;2023-03-19T06:46:02;6.10;99.90
53800;DHT22;39708;53.210;6.948;2023-03-19T06:48:27;6.00;99.90
53800;DHT22;39708;53.210;6.948;2023-03-19T06:50:53;5.80;99.90
53800;DHT22;39708;53.210;6.948;2023-03-19T06:53:18;5.80;99.90
53800;DHT22;39708;53.210;6.948;2023-03-19T06:55:47;5.90;99.90
53800;DHT22;39708;53.210;6.948;2023-03-19T06:58:12;5.90;99.90
53800;DHT22;39708;53.210;6.948;2023-03-19T07:00:38;6.30;99.90
53800;DHT22;39708;53.210;6.948;2023-03-19T07:03:03;6.60;99.90
53800;DHT22;39708;53.210;6.948;2023-03-19T07:05:29;6.70;99.90
53800;DHT22;39708;53.210;6.948;2023-03-19T07:07:54;6.90;99.90
53800;DHT22;39708;53.210;6.948;2023-03-19T07:10:20;7.20;99.90
53800;DHT22;39708;53.210;6.948;2023-03-19T07:12:46;7.30;99.90
53800;DHT22;39708;53.210;6.948;2023-03-19T07:15:12;7.40;99.90
53800;DHT22;39708;53.210;6.948;2023-03-19T07:17:38;7.50;99.90
53800;DHT22;39708;53.210;6.948;2023-03-19T07:20:03;7.50;99.90
53800;DHT22;39708;53.210;6.948;2023-03-19T07:22:29;7.50;99.90
53800;DHT22;39708;53.210;6.948;2023-03-19T07:24:55;7.60;99.90
53800;DHT22;39708;53.210;6.948;2023-03-19T07:27:20;7.70;99.90
53800;DHT22;39708;53.210;6.948;2023-03-19T07:29:46;8.10;99.90
53800;DHT22;39708;53.210;6.948;2023-03-19T07:32:12;8.00;99.90
53800;DHT22;39708;53.210;6.948;2023-03-19T07:34:37;8.10;99.90
53800;DHT22;39708;53.210;6.948;2023-03-19T07:37:03;8.30;99.90
53800;DHT22;39708;53.210;6.948;2023-03-19T07:39:28;8.40;99.90
53800;DHT22;39708;53.210;6.948;2023-03-19T07:41:54;8.60;99.90
53800;DHT22;39708;53.210;6.948;2023-03-19T07:44:20;8.80;99.90
53800;DHT22;39708;53.210;6.948;2023-03-19T07:46:45;8.80;99.90
53800;DHT22;39708;53.210;6.948;2023-03-19T07:49:11;8.90;99.90
53800;DHT22;39708;53.210;6.948;2023-03-19T07:51:36;9.10;99.90
53800;DHT22;39708;53.210;6.948;2023-03-19T07:54:02;9.20;99.90
53800;DHT22;39708;53.210;6.948;2023-03-19T07:56:27;9.40;99.90
53800;DHT22;39708;53.210;6.948;2023-03-19T07:58:53;9.60;99.90
53800;DHT22;39708;53.210;6.948;2023-03-19T08:01:18;9.70;99.90
53800;DHT22;39708;53.210;6.948;2023-03-19T08:03:44;9.90;99.90
53800;DHT22;39708;53.210;6.948;2023-03-19T08:06:10;10.00;99.90
53800;DHT22;39708;53.210;6.948;2023-03-19T08:08:35;10.10;99.90
53800;DHT22;39708;53.210;6.948;2023-03-19T08:11:01;10.20;99.90
53800;DHT22;39708;53.210;6.948;2023-03-19T08:13:27;10.30;99.90
53800;DHT22;39708;53.210;6.948;2023-03-19T08:15:52;10.30;99.90
53800;DHT22;39708;53.210;6.948;2023-03-19T08:18:18;10.30;99.90
53800;DHT22;39708;53.210;6.948;2023-03-19T08:20:44;10.40;99.90
53800;DHT22;39708;53.210;6.948;2023-03-19T08:23:11;10.40;99.90
53800;DHT22;39708;53.210;6.948;2023-03-19T08:25:37;10.50;99.90
53800;DHT22;39708;53.210;6.948;2023-03-19T08:28:02;10.50;99.90
53800;DHT22;39708;53.210;6.948;2023-03-19T08:30:28;10.60;99.90
53800;DHT22;39708;53.210;6.948;2023-03-19T08:32:53;10.60;99.90
53800;DHT22;39708;53.210;6.948;2023-03-19T08:35:19;10.70;99.90
53800;DHT22;39708;53.210;6.948;2023-03-19T08:37:45;10.70;99.90
53800;DHT22;39708;53.210;6.948;2023-03-19T08:40:10;10.70;99.90
53800;DHT22;39708;53.210;6.948;2023-03-19T08:42:36;10.70;99.90
53800;DHT22;39708;53.210;6.948;2023-03-19T08:45:09;10.70;99.90
53800;DHT22;39708;53.210;6.948;2023-03-19T08:47:36;10.70;99.90
53800;DHT22;39708;53.210;6.948;2023-03-19T08:50:01;10.80;99.90
53800;DHT22;39708;53.210;6.948;2023-03-19T08:52:27;10.90;99.90
53800;DHT22;39708;53.210;6.948;2023-03-19T08:54:53;11.00;99.90
53800;DHT22;39708;53.210;6.948;2023-03-19T08:57:18;11.20;99.90
53800;DHT22;39708;53.210;6.948;2023-03-19T08:59:44;11.30;99.90
53800;DHT22;39708;53.210;6.948;2023-03-19T09:02:10;11.40;99.90
53800;DHT22;39708;53.210;6.948;2023-03-19T09:04:39;11.50;99.90
53800;DHT22;39708;53.210;6.948;2023-03-19T09:07:04;11.50;99.90
53800;DHT22;39708;53.210;6.948;2023-03-19T09:09:30;11.00;99.90
53800;DHT22;39708;53.210;6.948;2023-03-19T09:11:55;10.70;99.90
53800;DHT22;39708;53.210;6.948;2023-03-19T09:14:21;10.30;99.90
53800;DHT22;39708;53.210;6.948;2023-03-19T09:16:47;10.10;99.90
53800;DHT22;39708;53.210;6.948;2023-03-19T09:19:13;9.90;99.90
53800;DHT22;39708;53.210;6.948;2023-03-19T09:21:39;9.80;99.90
53800;DHT22;39708;53.210;6.948;2023-03-19T09:24:04;9.90;99.90
53800;DHT22;39708;53.210;6.948;2023-03-19T09:26:30;9.90;99.90
53800;DHT22;39708;53.210;6.948;2023-03-19T09:28:56;9.90;99.90
53800;DHT22;39708;53.210;6.948;2023-03-19T09:31:22;10.00;99.90
53800;DHT22;39708;53.210;6.948;2023-03-19T09:33:48;9.90;99.90
53800;DHT22;39708;53.210;6.948;2023-03-19T09:36:13;10.00;99.90
53800;DHT22;39708;53.210;6.948;2023-03-19T09:38:40;9.80;99.90
53800;DHT22;39708;53.210;6.948;2023-03-19T09:43:55;10.00;99.90
53800;DHT22;39708;53.210;6.948;2023-03-19T09:46:23;10.00;99.90
53800;DHT22;39708;53.210;6.948;2023-03-19T09:48:59;10.10;99.90
53800;DHT22;39708;53.210;6.948;2023-03-19T09:51:28;10.30;99.90
53800;DHT22;39708;53.210;6.948;2023-03-19T09:53:55;10.40;99.90
53800;DHT22;39708;53.210;6.948;2023-03-19T09:56:23;10.20;99.90
53800;DHT22;39708;53.210;6.948;2023-03-19T09:58:49;10.20;99.90
53800;DHT22;39708;53.210;6.948;2023-03-19T10:01:25;10.10;99.90
53800;DHT22;39708;53.210;6.948;2023-03-19T10:03:57;10.20;99.90
53800;DHT22;39708;53.210;6.948;2023-03-19T10:06:34;10.10;99.90
53800;DHT22;39708;53.210;6.948;2023-03-19T10:16:33;10.80;99.90
53800;DHT22;39708;53.210;6.948;2023-03-19T10:19:03;11.50;99.90
53800;DHT22;39708;53.210;6.948;2023-03-19T10:24:01;13.10;99.90
53800;DHT22;39708;53.210;6.948;2023-03-19T10:26:30;13.50;99.90
53800;DHT22;39708;53.210;6.948;2023-03-19T10:29:09;13.10;99.90
53800;DHT22;39708;53.210;6.948;2023-03-19T10:34:16;13.10;99.90
53800;DHT22;39708;53.210;6.948;2023-03-19T10:36:45;13.00;99.90
53800;DHT22;39708;53.210;6.948;2023-03-19T10:39:11;12.90;99.90
53800;DHT22;39708;53.210;6.948;2023-03-19T10:41:41;12.90;99.90
53800;DHT22;39708;53.210;6.948;2023-03-19T10:44:12;12.80;99.90
53800;DHT22;39708;53.210;6.948;2023-03-19T10:46:40;12.70;99.90
53800;DHT22;39708;53.210;6.948;2023-03-19T10:49:12;12.70;99.90
53800;DHT22;39708;53.210;6.948;2023-03-19T10:51:39;12.60;99.90
53800;DHT22;39708;53.210;6.948;2023-03-19T10:54:16;12.60;99.90
53800;DHT22;39708;53.210;6.948;2023-03-19T10:56:44;12.60;99.90
53800;DHT22;39708;53.210;6.948;2023-03-19T10:59:23;12.50;99.90
53800;DHT22;39708;53.210;6.948;2023-03-19T11:01:49;12.50;99.90
53800;DHT22;39708;53.210;6.948;2023-03-19T11:04:20;12.50;99.90
53800;DHT22;39708;53.210;6.948;2023-03-19T11:06:50;12.60;99.90
53800;DHT22;39708;53.210;6.948;2023-03-19T11:17:13;12.90;99.90
53800;DHT22;39708;53.210;6.948;2023-03-19T11:19:41;12.80;99.90
53800;DHT22;39708;53.210;6.948;2023-03-19T11:22:08;12.80;99.90
53800;DHT22;39708;53.210;6.948;2023-03-19T11:24:38;12.80;99.90
53800;DHT22;39708;53.210;6.948;2023-03-19T11:27:05;12.80;99.90
53800;DHT22;39708;53.210;6.948;2023-03-19T11:29:30;12.80;99.90
53800;DHT22;39708;53.210;6.948;2023-03-19T11:32:03;12.90;99.90
53800;DHT22;39708;53.210;6.948;2023-03-19T11:37:26;13.00;99.90
53800;DHT22;39708;53.210;6.948;2023-03-19T11:42:34;13.00;99.90
53800;DHT22;39708;53.210;6.948;2023-03-19T11:47:36;12.80;99.90
53800;DHT22;39708;53.210;6.948;2023-03-19T11:50:25;12.80;99.90
53800;DHT22;39708;53.210;6.948;2023-03-19T11:55:33;12.70;99.90
53800;DHT22;39708;53.210;6.948;2023-03-19T11:58:04;12.80;99.90
53800;DHT22;39708;53.210;6.948;2023-03-19T12:00:47;12.90;99.90
53800;DHT22;39708;53.210;6.948;2023-03-19T12:03:18;12.90;99.90
53800;DHT22;39708;53.210;6.948;2023-03-19T12:05:55;12.90;99.90
53800;DHT22;39708;53.210;6.948;2023-03-19T12:08:32;12.80;99.90
53800;DHT22;39708;53.210;6.948;2023-03-19T12:13:43;12.90;99.90
53800;DHT22;39708;53.210;6.948;2023-03-19T12:16:16;12.90;99.90
53800;DHT22;39708;53.210;6.948;2023-03-19T12:19:28;12.90;99.90
53800;DHT22;39708;53.210;6.948;2023-03-19T12:27:05;13.30;99.90
53800;DHT22;39708;53.210;6.948;2023-03-19T12:32:25;13.70;99.90
53800;DHT22;39708;53.210;6.948;2023-03-19T12:34:57;13.80;99.90
53800;DHT22;39708;53.210;6.948;2023-03-19T12:37:34;13.90;99.90
53800;DHT22;39708;53.210;6.948;2023-03-19T12:40:24;13.80;99.90
53800;DHT22;39708;53.210;6.948;2023-03-19T12:42:51;13.80;99.90
53800;DHT22;39708;53.210;6.948;2023-03-19T12:47:49;13.90;99.90
53800;DHT22;39708;53.210;6.948;2023-03-19T12:50:17;14.10;99.90
53800;DHT22;39708;53.210;6.948;2023-03-19T12:52:46;14.20;99.90
53800;DHT22;39708;53.210;6.948;2023-03-19T12:57:58;14.50;99.90
53800;DHT22;39708;53.210;6.948;2023-03-19T13:00:31;14.60;99.90
53800;DHT22;39708;53.210;6.948;2023-03-19T13:03:03;14.70;99.90
53800;DHT22;39708;53.210;6.948;2023-03-19T13:05:33;14.70;99.90
53800;DHT22;39708;53.210;6.948;2023-03-19T13:08:12;14.60;99.90
53800;DHT22;39708;53.210;6.948;2023-03-19T13:10:38;14.70;99.90
53800;DHT22;39708;53.210;6.948;2023-03-19T13:13:50;14.70;99.90
53800;DHT22;39708;53.210;6.948;2023-03-19T13:15:51;14.90;99.90
53800;DHT22;39708;53.210;6.948;2023-03-19T13:23:34;14.70;99.90
53800;DHT22;39708;53.210;6.948;2023-03-19T13:26:02;14.70;99.90
53800;DHT22;39708;53.210;6.948;2023-03-19T13:28:30;14.60;99.90
53800;DHT22;39708;53.210;6.948;2023-03-19T13:31:07;14.40;99.90
53800;DHT22;39708;53.210;6.948;2023-03-19T13:33:48;14.30;99.90
53800;DHT22;39708;53.210;6.948;2023-03-19T13:36:15;14.20;99.90
53800;DHT22;39708;53.210;6.948;2023-03-19T13:38:46;14.20;99.90
53800;DHT22;39708;53.210;6.948;2023-03-19T13:43:56;14.20;99.90
53800;DHT22;39708;53.210;6.948;2023-03-19T13:48:50;14.20;99.90
53800;DHT22;39708;53.210;6.948;2023-03-19T13:56:13;14.10;99.90
53800;DHT22;39708;53.210;6.948;2023-03-19T13:59:23;14.00;99.90
53800;DHT22;39708;53.210;6.948;2023-03-19T14:04:01;13.80;99.90
53800;DHT22;39708;53.210;6.948;2023-03-19T14:06:40;13.90;99.90
53800;DHT22;39708;53.210;6.948;2023-03-19T14:09:26;14.00;99.90
53800;DHT22;39708;53.210;6.948;2023-03-19T14:11:54;13.80;99.90
53800;DHT22;39708;53.210;6.948;2023-03-19T14:14:32;13.80;99.90
53800;DHT22;39708;53.210;6.948;2023-03-19T14:16:58;13.90;99.90
53800;DHT22;39708;53.210;6.948;2023-03-19T14:19:24;13.90;99.90
53800;DHT22;39708;53.210;6.948;2023-03-19T14:26:50;13.60;99.90
53800;DHT22;39708;53.210;6.948;2023-03-19T14:29:16;13.50;99.90
53800;DHT22;39708;53.210;6.948;2023-03-19T14:31:46;13.30;99.90
53800;DHT22;39708;53.210;6.948;2023-03-19T14:36:43;13.10;99.90
53800;DHT22;39708;53.210;6.948;2023-03-19T14:39:14;13.00;99.90
53800;DHT22;39708;53.210;6.948;2023-03-19T14:41:42;13.00;99.90
53800;DHT22;39708;53.210;6.948;2023-03-19T14:44:33;12.90;99.90
53800;DHT22;39708;53.210;6.948;2023-03-19T14:47:02;12.90;99.90
53800;DHT22;39708;53.210;6.948;2023-03-19T14:56:46;12.70;99.90
53800;DHT22;39708;53.210;6.948;2023-03-19T14:59:12;12.50;99.90
53800;DHT22;39708;53.210;6.948;2023-03-19T15:01:40;12.50;99.90
53800;DHT22;39708;53.210;6.948;2023-03-19T15:04:14;12.40;99.90
53800;DHT22;39708;53.210;6.948;2023-03-19T15:06:42;12.40;99.90
53800;DHT22;39708;53.210;6.948;2023-03-19T15:09:11;12.30;99.90
53800;DHT22;39708;53.210;6.948;2023-03-19T15:19:24;12.10;99.90
53800;DHT22;39708;53.210;6.948;2023-03-19T15:21:50;12.00;99.90
53800;DHT22;39708;53.210;6.948;2023-03-19T15:24:16;11.50;99.90
53800;DHT22;39708;53.210;6.948;2023-03-19T15:26:42;11.90;99.90
53800;DHT22;39708;53.210;6.948;2023-03-19T15:29:08;11.80;99.90
53800;DHT22;39708;53.210;6.948;2023-03-19T15:31:42;11.70;99.90
53800;DHT22;39708;53.210;6.948;2023-03-19T15:34:18;11.60;99.90
53800;DHT22;39708;53.210;6.948;2023-03-19T15:36:43;11.50;99.90
53800;DHT22;39708;53.210;6.948;2023-03-19T15:39:09;11.40;99.90
53800;DHT22;39708;53.210;6.948;2023-03-19T15:41:37;11.40;99.90
53800;DHT22;39708;53.210;6.948;2023-03-19T15:44:05;11.30;99.90
53800;DHT22;39708;53.210;6.948;2023-03-19T15:46:33;11.30;99.90
53800;DHT22;39708;53.210;6.948;2023-03-19T15:49:02;11.20;99.90
53800;DHT22;39708;53.210;6.948;2023-03-19T15:51:29;11.10;99.90
53800;DHT22;39708;53.210;6.948;2023-03-19T15:53:55;11.00;99.90
53800;DHT22;39708;53.210;6.948;2023-03-19T15:56:21;10.80;99.90
53800;DHT22;39708;53.210;6.948;2023-03-19T15:58:48;10.90;99.90
53800;DHT22;39708;53.210;6.948;2023-03-19T16:01:15;10.80;99.90
53800;DHT22;39708;53.210;6.948;2023-03-19T16:03:42;10.80;99.90
53800;DHT22;39708;53.210;6.948;2023-03-19T16:06:13;10.80;99.90
53800;DHT22;39708;53.210;6.948;2023-03-19T16:08:45;10.70;99.90
53800;DHT22;39708;53.210;6.948;2023-03-19T16:11:11;10.70;99.90
53800;DHT22;39708;53.210;6.948;2023-03-19T16:13:37;10.70;99.90
53800;DHT22;39708;53.210;6.948;2023-03-19T16:16:10;10.70;99.90
53800;DHT22;39708;53.210;6.948;2023-03-19T16:18:40;10.70;99.90
53800;DHT22;39708;53.210;6.948;2023-03-19T16:21:07;10.70;99.90
53800;DHT22;39708;53.210;6.948;2023-03-19T16:23:34;10.70;99.90
53800;DHT22;39708;53.210;6.948;2023-03-19T16:26:08;10.70;99.90
53800;DHT22;39708;53.210;6.948;2023-03-19T16:28:39;10.60;99.90
53800;DHT22;39708;53.210;6.948;2023-03-19T16:31:14;10.60;99.90
53800;DHT22;39708;53.210;6.948;2023-03-19T16:33:40;10.60;99.90
53800;DHT22;39708;53.210;6.948;2023-03-19T16:36:08;10.50;99.90
53800;DHT22;39708;53.210;6.948;2023-03-19T16:38:40;10.50;99.90
53800;DHT22;39708;53.210;6.948;2023-03-19T16:43:32;10.40;99.90
53800;DHT22;39708;53.210;6.948;2023-03-19T16:46:04;10.40;99.90
53800;DHT22;39708;53.210;6.948;2023-03-19T16:48:30;10.40;99.90
53800;DHT22;39708;53.210;6.948;2023-03-19T16:50:56;10.30;99.90
53800;DHT22;39708;53.210;6.948;2023-03-19T16:53:25;10.40;99.90
53800;DHT22;39708;53.210;6.948;2023-03-19T16:55:53;10.30;99.90
53800;DHT22;39708;53.210;6.948;2023-03-19T16:58:32;10.80;99.90
53800;DHT22;39708;53.210;6.948;2023-03-19T17:00:59;10.30;99.90
53800;DHT22;39708;53.210;6.948;2023-03-19T17:03:25;10.30;99.90
53800;DHT22;39708;53.210;6.948;2023-03-19T17:05:50;10.20;99.90
53800;DHT22;39708;53.210;6.948;2023-03-19T17:08:16;10.20;99.90
53800;DHT22;39708;53.210;6.948;2023-03-19T17:10:45;10.20;99.90
53800;DHT22;39708;53.210;6.948;2023-03-19T17:13:23;10.20;99.90
53800;DHT22;39708;53.210;6.948;2023-03-19T17:16:00;10.20;99.90
53800;DHT22;39708;53.210;6.948;2023-03-19T17:18:28;10.20;99.90
53800;DHT22;39708;53.210;6.948;2023-03-19T17:20:56;10.10;99.90
53800;DHT22;39708;53.210;6.948;2023-03-19T17:23:23;10.30;99.90
53800;DHT22;39708;53.210;6.948;2023-03-19T17:25:51;10.10;99.90
53800;DHT22;39708;53.210;6.948;2023-03-19T17:28:17;10.10;99.90
53800;DHT22;39708;53.210;6.948;2023-03-19T17:30:43;10.10;99.90